sensor_id;sensor_type;location;lat;lon;timestamp;P1;durP1;ratioP1;P2;durP2;ratioP2
34982;SDS011;21187;50.976;13.720;2024-01-07T00:00:21;40.00;;;16.80;;
34982;SDS011;21187;50.976;13.720;2024-01-07T00:05:23;48.10;;;17.45;;
34982;SDS011;21187;50.976;13.720;2024-01-07T00:10:25;42.45;;;16.92;;
34982;SDS011;21187;50.976;13.720;2024-01-07T00:15:27;40.00;;;15.98;;
34982;SDS011;21187;50.976;13.720;2024-01-07T00:20:29;49.75;;;18.02;;
34982;SDS011;21187;50.976;13.720;2024-01-07T00:25:31;40.15;;;15.32;;
34982;SDS011;21187;50.976;13.720;2024-01-07T00:30:33;38.47;;;16.25;;
34982;SDS011;21187;50.976;13.720;2024-01-07T00:35:35;41.00;;;16.42;;
34982;SDS011;21187;50.976;13.720;2024-01-07T00:40:37;48.60;;;16.27;;
34982;SDS011;21187;50.976;13.720;2024-01-07T00:45:39;39.92;;;15.45;;
34982;SDS011;21187;50.976;13.720;2024-01-07T00:50:42;38.03;;;15.98;;
34982;SDS011;21187;50.976;13.720;2024-01-07T00:55:44;38.60;;;15.02;;
34982;SDS011;21187;50.976;13.720;2024-01-07T01:00:46;45.05;;;15.40;;
34982;SDS011;21187;50.976;13.720;2024-01-07T01:05:48;35.08;;;14.52;;
34982;SDS011;21187;50.976;13.720;2024-01-07T01:10:50;44.47;;;15.70;;
34982;SDS011;21187;50.976;13.720;2024-01-07T01:15:52;40.50;;;15.63;;
34982;SDS011;21187;50.976;13.720;2024-01-07T01:20:55;42.80;;;14.48;;
34982;SDS011;21187;50.976;13.720;2024-01-07T01:25:57;34.53;;;15.20;;
34982;SDS011;21187;50.976;13.720;2024-01-07T01:30:59;40.28;;;14.25;;
34982;SDS011;21187;50.976;13.720;2024-01-07T01:36:04;34.67;;;13.50;;
34982;SDS011;21187;50.976;13.720;2024-01-07T01:41:07;35.90;;;13.68;;
34982;SDS011;21187;50.976;13.720;2024-01-07T01:46:09;40.78;;;14.60;;
34982;SDS011;21187;50.976;13.720;2024-01-07T01:51:11;40.80;;;14.75;;
34982;SDS011;21187;50.976;13.720;2024-01-07T01:56:13;39.00;;;13.25;;
34982;SDS011;21187;50.976;13.720;2024-01-07T02:01:15;35.53;;;14.27;;
34982;SDS011;21187;50.976;13.720;2024-01-07T02:06:17;41.20;;;15.23;;
34982;SDS011;21187;50.976;13.720;2024-01-07T02:11:20;39.30;;;15.20;;
34982;SDS011;21187;50.976;13.720;2024-01-07T02:16:23;37.40;;;14.75;;
34982;SDS011;21187;50.976;13.720;2024-01-07T02:21:25;37.35;;;15.00;;
34982;SDS011;21187;50.976;13.720;2024-01-07T02:26:27;35.08;;;12.95;;
34982;SDS011;21187;50.976;13.720;2024-01-07T02:31:31;34.40;;;13.93;;
34982;SDS011;21187;50.976;13.720;2024-01-07T02:36:33;31.58;;;11.75;;
34982;SDS011;21187;50.976;13.720;2024-01-07T02:41:35;35.50;;;14.02;;
34982;SDS011;21187;50.976;13.720;2024-01-07T02:46:37;37.97;;;12.88;;
34982;SDS011;21187;50.976;13.720;2024-01-07T02:51:39;37.42;;;13.02;;
34982;SDS011;21187;50.976;13.720;2024-01-07T02:56:41;33.75;;;13.60;;
34982;SDS011;21187;50.976;13.720;2024-01-07T03:01:42;40.42;;;14.15;;
34982;SDS011;21187;50.976;13.720;2024-01-07T03:06:45;43.25;;;13.60;;
34982;SDS011;21187;50.976;13.720;2024-01-07T03:11:46;39.13;;;14.10;;
34982;SDS011;21187;50.976;13.720;2024-01-07T03:16:48;29.10;;;11.77;;
34982;SDS011;21187;50.976;13.720;2024-01-07T03:21:51;39.28;;;14.27;;
34982;SDS011;21187;50.976;13.720;2024-01-07T03:26:52;36.10;;;12.88;;
34982;SDS011;21187;50.976;13.720;2024-01-07T03:31:54;31.17;;;12.70;;
34982;SDS011;21187;50.976;13.720;2024-01-07T03:36:56;25.75;;;12.30;;
34982;SDS011;21187;50.976;13.720;2024-01-07T03:41:59;34.85;;;12.27;;
34982;SDS011;21187;50.976;13.720;2024-01-07T03:47:01;32.10;;;12.27;;
34982;SDS011;21187;50.976;13.720;2024-01-07T03:52:03;35.75;;;12.77;;
34982;SDS011;21187;50.976;13.720;2024-01-07T03:57:07;28.00;;;11.93;;
34982;SDS011;21187;50.976;13.720;2024-01-07T04:02:08;31.25;;;11.65;;
34982;SDS011;21187;50.976;13.720;2024-01-07T04:07:10;29.75;;;12.02;;
34982;SDS011;21187;50.976;13.720;2024-01-07T04:12:12;24.17;;;10.43;;
34982;SDS011;21187;50.976;13.720;2024-01-07T04:17:14;33.55;;;11.93;;
34982;SDS011;21187;50.976;13.720;2024-01-07T04:22:16;37.67;;;12.02;;
34982;SDS011;21187;50.976;13.720;2024-01-07T04:27:18;41.30;;;13.07;;
34982;SDS011;21187;50.976;13.720;2024-01-07T04:32:20;29.63;;;11.32;;
34982;SDS011;21187;50.976;13.720;2024-01-07T04:37:21;28.35;;;11.02;;
34982;SDS011;21187;50.976;13.720;2024-01-07T04:42:23;35.85;;;12.20;;
34982;SDS011;21187;50.976;13.720;2024-01-07T04:47:32;30.67;;;11.65;;
34982;SDS011;21187;50.976;13.720;2024-01-07T04:52:37;30.35;;;11.23;;
34982;SDS011;21187;50.976;13.720;2024-01-07T04:57:39;25.50;;;11.32;;
34982;SDS011;21187;50.976;13.720;2024-01-07T05:02:41;29.02;;;10.20;;
34982;SDS011;21187;50.976;13.720;2024-01-07T05:07:43;27.83;;;11.80;;
34982;SDS011;21187;50.976;13.720;2024-01-07T05:12:45;36.25;;;11.25;;
34982;SDS011;21187;50.976;13.720;2024-01-07T05:17:47;29.88;;;10.65;;
34982;SDS011;21187;50.976;13.720;2024-01-07T05:22:49;30.05;;;11.35;;
34982;SDS011;21187;50.976;13.720;2024-01-07T05:27:51;28.65;;;10.48;;
34982;SDS011;21187;50.976;13.720;2024-01-07T05:32:53;30.40;;;10.52;;
34982;SDS011;21187;50.976;13.720;2024-01-07T05:37:55;31.17;;;10.43;;
34982;SDS011;21187;50.976;13.720;2024-01-07T05:42:56;28.88;;;11.73;;
34982;SDS011;21187;50.976;13.720;2024-01-07T05:47:58;22.70;;;9.90;;
34982;SDS011;21187;50.976;13.720;2024-01-07T05:53:00;27.13;;;11.65;;
34982;SDS011;21187;50.976;13.720;2024-01-07T05:58:02;28.13;;;9.50;;
34982;SDS011;21187;50.976;13.720;2024-01-07T06:03:04;26.58;;;10.57;;
34982;SDS011;21187;50.976;13.720;2024-01-07T06:08:06;22.52;;;10.10;;
34982;SDS011;21187;50.976;13.720;2024-01-07T06:13:08;26.13;;;10.18;;
34982;SDS011;21187;50.976;13.720;2024-01-07T06:18:10;27.00;;;9.38;;
34982;SDS011;21187;50.976;13.720;2024-01-07T06:23:12;22.65;;;9.27;;
34982;SDS011;21187;50.976;13.720;2024-01-07T06:28:15;26.83;;;9.90;;
34982;SDS011;21187;50.976;13.720;2024-01-07T06:33:17;23.30;;;9.05;;
34982;SDS011;21187;50.976;13.720;2024-01-07T06:38:19;23.52;;;8.98;;
34982;SDS011;21187;50.976;13.720;2024-01-07T06:43:21;22.60;;;8.80;;
34982;SDS011;21187;50.976;13.720;2024-01-07T06:48:23;29.70;;;8.98;;
34982;SDS011;21187;50.976;13.720;2024-01-07T06:53:25;17.33;;;6.93;;
34982;SDS011;21187;50.976;13.720;2024-01-07T06:58:27;21.65;;;7.35;;
34982;SDS011;21187;50.976;13.720;2024-01-07T07:03:29;16.13;;;7.50;;
34982;SDS011;21187;50.976;13.720;2024-01-07T07:08:31;14.07;;;5.85;;
34982;SDS011;21187;50.976;13.720;2024-01-07T07:13:33;23.00;;;7.07;;
34982;SDS011;21187;50.976;13.720;2024-01-07T07:18:35;17.52;;;6.82;;
34982;SDS011;21187;50.976;13.720;2024-01-07T07:23:37;18.55;;;6.78;;
34982;SDS011;21187;50.976;13.720;2024-01-07T07:28:39;14.15;;;6.55;;
34982;SDS011;21187;50.976;13.720;2024-01-07T07:33:41;13.32;;;6.18;;
34982;SDS011;21187;50.976;13.720;2024-01-07T07:38:43;14.30;;;5.47;;
34982;SDS011;21187;50.976;13.720;2024-01-07T07:43:45;18.50;;;5.97;;
34982;SDS011;21187;50.976;13.720;2024-01-07T07:48:47;15.30;;;6.07;;
34982;SDS011;21187;50.976;13.720;2024-01-07T07:53:50;14.38;;;5.25;;
34982;SDS011;21187;50.976;13.720;2024-01-07T07:58:52;13.48;;;5.13;;
34982;SDS011;21187;50.976;13.720;2024-01-07T08:03:54;14.65;;;7.28;;
34982;SDS011;21187;50.976;13.720;2024-01-07T08:08:57;11.20;;;5.65;;
34982;SDS011;21187;50.976;13.720;2024-01-07T08:13:59;13.18;;;5.60;;
34982;SDS011;21187;50.976;13.720;2024-01-07T08:19:02;17.10;;;5.53;;
34982;SDS011;21187;50.976;13.720;2024-01-07T08:24:04;11.30;;;5.32;;
34982;SDS011;21187;50.976;13.720;2024-01-07T08:29:07;12.80;;;4.72;;
34982;SDS011;21187;50.976;13.720;2024-01-07T08:34:08;11.90;;;5.32;;
34982;SDS011;21187;50.976;13.720;2024-01-07T08:39:11;11.57;;;4.85;;
34982;SDS011;21187;50.976;13.720;2024-01-07T08:44:13;10.38;;;4.35;;
34982;SDS011;21187;50.976;13.720;2024-01-07T08:49:15;13.35;;;4.70;;
34982;SDS011;21187;50.976;13.720;2024-01-07T08:54:17;10.20;;;4.25;;
34982;SDS011;21187;50.976;13.720;2024-01-07T08:59:18;9.38;;;3.92;;
34982;SDS011;21187;50.976;13.720;2024-01-07T09:04:20;6.63;;;3.47;;
34982;SDS011;21187;50.976;13.720;2024-01-07T09:09:23;10.55;;;4.10;;
34982;SDS011;21187;50.976;13.720;2024-01-07T09:14:25;13.23;;;3.72;;
34982;SDS011;21187;50.976;13.720;2024-01-07T09:19:27;9.18;;;3.10;;
34982;SDS011;21187;50.976;13.720;2024-01-07T09:24:29;7.60;;;3.47;;
34982;SDS011;21187;50.976;13.720;2024-01-07T09:29:31;9.73;;;3.40;;
34982;SDS011;21187;50.976;13.720;2024-01-07T09:34:33;8.38;;;3.28;;
34982;SDS011;21187;50.976;13.720;2024-01-07T09:39:42;10.25;;;3.55;;
34982;SDS011;21187;50.976;13.720;2024-01-07T09:49:47;6.53;;;2.90;;
34982;SDS011;21187;50.976;13.720;2024-01-07T09:54:51;7.97;;;3.55;;
34982;SDS011;21187;50.976;13.720;2024-01-07T09:59:54;6.93;;;3.45;;
34982;SDS011;21187;50.976;13.720;2024-01-07T10:04:56;9.85;;;3.55;;
34982;SDS011;21187;50.976;13.720;2024-01-07T10:10:09;7.38;;;3.08;;
34982;SDS011;21187;50.976;13.720;2024-01-07T10:15:13;8.40;;;3.08;;
34982;SDS011;21187;50.976;13.720;2024-01-07T10:20:16;9.32;;;3.63;;
34982;SDS011;21187;50.976;13.720;2024-01-07T10:25:18;6.38;;;3.22;;
34982;SDS011;21187;50.976;13.720;2024-01-07T10:30:20;6.57;;;3.28;;
34982;SDS011;21187;50.976;13.720;2024-01-07T10:35:27;7.95;;;3.33;;
34982;SDS011;21187;50.976;13.720;2024-01-07T10:40:34;10.60;;;2.95;;
34982;SDS011;21187;50.976;13.720;2024-01-07T10:45:36;8.73;;;3.40;;
34982;SDS011;21187;50.976;13.720;2024-01-07T10:50:39;6.50;;;2.58;;
34982;SDS011;21187;50.976;13.720;2024-01-07T10:55:42;9.60;;;3.20;;
34982;SDS011;21187;50.976;13.720;2024-01-07T11:00:57;7.00;;;3.08;;
34982;SDS011;21187;50.976;13.720;2024-01-07T11:06:03;8.77;;;3.75;;
34982;SDS011;21187;50.976;13.720;2024-01-07T11:11:17;8.30;;;3.78;;
34982;SDS011;21187;50.976;13.720;2024-01-07T11:16:59;6.30;;;2.83;;
34982;SDS011;21187;50.976;13.720;2024-01-07T11:27:44;10.88;;;3.50;;
34982;SDS011;21187;50.976;13.720;2024-01-07T11:32:46;5.13;;;2.72;;
34982;SDS011;21187;50.976;13.720;2024-01-07T11:37:52;11.73;;;3.58;;
34982;SDS011;21187;50.976;13.720;2024-01-07T11:42:54;7.45;;;2.58;;
34982;SDS011;21187;50.976;13.720;2024-01-07T11:47:56;8.90;;;2.53;;
34982;SDS011;21187;50.976;13.720;2024-01-07T11:52:59;7.80;;;3.72;;
34982;SDS011;21187;50.976;13.720;2024-01-07T11:58:01;3.95;;;2.03;;
34982;SDS011;21187;50.976;13.720;2024-01-07T12:03:04;10.27;;;2.83;;
34982;SDS011;21187;50.976;13.720;2024-01-07T12:08:08;5.72;;;2.50;;
34982;SDS011;21187;50.976;13.720;2024-01-07T12:13:10;6.75;;;2.88;;
34982;SDS011;21187;50.976;13.720;2024-01-07T12:18:13;4.40;;;2.67;;
34982;SDS011;21187;50.976;13.720;2024-01-07T12:23:16;5.85;;;2.42;;
34982;SDS011;21187;50.976;13.720;2024-01-07T12:28:18;7.85;;;3.00;;
34982;SDS011;21187;50.976;13.720;2024-01-07T12:33:21;5.72;;;2.60;;
34982;SDS011;21187;50.976;13.720;2024-01-07T12:38:24;3.75;;;2.58;;
34982;SDS011;21187;50.976;13.720;2024-01-07T12:43:26;4.50;;;2.47;;
34982;SDS011;21187;50.976;13.720;2024-01-07T12:48:28;7.53;;;2.65;;
34982;SDS011;21187;50.976;13.720;2024-01-07T12:53:31;5.85;;;2.47;;
34982;SDS011;21187;50.976;13.720;2024-01-07T12:58:33;7.10;;;2.97;;
34982;SDS011;21187;50.976;13.720;2024-01-07T13:03:35;5.15;;;2.50;;
34982;SDS011;21187;50.976;13.720;2024-01-07T13:08:38;4.30;;;2.38;;
34982;SDS011;21187;50.976;13.720;2024-01-07T13:13:40;6.13;;;2.55;;
34982;SDS011;21187;50.976;13.720;2024-01-07T13:18:42;4.18;;;2.17;;
34982;SDS011;21187;50.976;13.720;2024-01-07T13:23:45;4.25;;;1.90;;
34982;SDS011;21187;50.976;13.720;2024-01-07T13:28:49;5.30;;;2.05;;
34982;SDS011;21187;50.976;13.720;2024-01-07T13:33:51;3.50;;;1.98;;
34982;SDS011;21187;50.976;13.720;2024-01-07T13:38:54;5.50;;;2.25;;
34982;SDS011;21187;50.976;13.720;2024-01-07T13:43:56;4.60;;;1.95;;
34982;SDS011;21187;50.976;13.720;2024-01-07T13:48:58;4.63;;;2.22;;
34982;SDS011;21187;50.976;13.720;2024-01-07T13:54:02;2.28;;;1.55;;
34982;SDS011;21187;50.976;13.720;2024-01-07T13:59:05;7.63;;;2.38;;
34982;SDS011;21187;50.976;13.720;2024-01-07T14:04:07;3.25;;;1.73;;
34982;SDS011;21187;50.976;13.720;2024-01-07T14:09:09;3.45;;;1.95;;
34982;SDS011;21187;50.976;13.720;2024-01-07T14:14:11;5.43;;;2.60;;
34982;SDS011;21187;50.976;13.720;2024-01-07T14:19:13;10.65;;;5.75;;
34982;SDS011;21187;50.976;13.720;2024-01-07T14:24:19;4.05;;;2.67;;
34982;SDS011;21187;50.976;13.720;2024-01-07T14:29:21;5.32;;;2.50;;
34982;SDS011;21187;50.976;13.720;2024-01-07T14:34:24;5.20;;;2.15;;
34982;SDS011;21187;50.976;13.720;2024-01-07T14:39:26;4.43;;;1.90;;
34982;SDS011;21187;50.976;13.720;2024-01-07T14:44:28;4.65;;;2.10;;
34982;SDS011;21187;50.976;13.720;2024-01-07T14:49:45;4.18;;;1.90;;
34982;SDS011;21187;50.976;13.720;2024-01-07T14:54:48;4.53;;;2.40;;
34982;SDS011;21187;50.976;13.720;2024-01-07T14:59:50;4.82;;;2.38;;
34982;SDS011;21187;50.976;13.720;2024-01-07T15:04:52;6.68;;;2.03;;
34982;SDS011;21187;50.976;13.720;2024-01-07T15:09:56;8.82;;;2.60;;
34982;SDS011;21187;50.976;13.720;2024-01-07T15:14:58;6.32;;;2.28;;
34982;SDS011;21187;50.976;13.720;2024-01-07T15:20:00;3.70;;;2.22;;
34982;SDS011;21187;50.976;13.720;2024-01-07T15:25:03;5.50;;;2.60;;
34982;SDS011;21187;50.976;13.720;2024-01-07T15:30:08;5.88;;;3.35;;
34982;SDS011;21187;50.976;13.720;2024-01-07T15:35:11;6.68;;;2.90;;
34982;SDS011;21187;50.976;13.720;2024-01-07T15:40:13;3.75;;;2.05;;
34982;SDS011;21187;50.976;13.720;2024-01-07T15:45:16;3.80;;;2.85;;
34982;SDS011;21187;50.976;13.720;2024-01-07T15:50:18;7.00;;;3.53;;
34982;SDS011;21187;50.976;13.720;2024-01-07T15:55:20;6.05;;;3.08;;
34982;SDS011;21187;50.976;13.720;2024-01-07T16:00:22;6.40;;;3.40;;
34982;SDS011;21187;50.976;13.720;2024-01-07T16:05:25;6.93;;;2.58;;
34982;SDS011;21187;50.976;13.720;2024-01-07T16:10:27;6.90;;;2.38;;
34982;SDS011;21187;50.976;13.720;2024-01-07T16:15:30;9.30;;;2.88;;
34982;SDS011;21187;50.976;13.720;2024-01-07T16:20:32;4.85;;;3.00;;
34982;SDS011;21187;50.976;13.720;2024-01-07T16:25:35;6.47;;;3.10;;
34982;SDS011;21187;50.976;13.720;2024-01-07T16:30:38;4.70;;;2.40;;
34982;SDS011;21187;50.976;13.720;2024-01-07T16:35:40;4.82;;;2.60;;
34982;SDS011;21187;50.976;13.720;2024-01-07T16:40:43;6.57;;;2.70;;
34982;SDS011;21187;50.976;13.720;2024-01-07T16:45:46;9.80;;;3.83;;
34982;SDS011;21187;50.976;13.720;2024-01-07T16:50:48;9.35;;;3.30;;
34982;SDS011;21187;50.976;13.720;2024-01-07T16:55:53;5.68;;;3.38;;
34982;SDS011;21187;50.976;13.720;2024-01-07T17:00:57;6.82;;;3.30;;
34982;SDS011;21187;50.976;13.720;2024-01-07T17:06:01;6.88;;;2.83;;
34982;SDS011;21187;50.976;13.720;2024-01-07T17:11:04;8.60;;;2.88;;
34982;SDS011;21187;50.976;13.720;2024-01-07T17:16:07;4.13;;;2.40;;
34982;SDS011;21187;50.976;13.720;2024-01-07T17:21:09;6.82;;;2.85;;
34982;SDS011;21187;50.976;13.720;2024-01-07T17:26:10;6.03;;;2.90;;
34982;SDS011;21187;50.976;13.720;2024-01-07T17:31:12;8.52;;;3.38;;
34982;SDS011;21187;50.976;13.720;2024-01-07T17:36:15;4.78;;;2.33;;
34982;SDS011;21187;50.976;13.720;2024-01-07T17:41:17;4.78;;;2.65;;
34982;SDS011;21187;50.976;13.720;2024-01-07T17:46:19;5.88;;;2.50;;
34982;SDS011;21187;50.976;13.720;2024-01-07T17:51:21;4.57;;;2.63;;
34982;SDS011;21187;50.976;13.720;2024-01-07T17:56:24;8.82;;;3.53;;
34982;SDS011;21187;50.976;13.720;2024-01-07T18:01:27;5.90;;;2.80;;
34982;SDS011;21187;50.976;13.720;2024-01-07T18:06:29;6.95;;;3.28;;
34982;SDS011;21187;50.976;13.720;2024-01-07T18:11:31;7.85;;;2.70;;
34982;SDS011;21187;50.976;13.720;2024-01-07T18:16:36;8.05;;;3.28;;
34982;SDS011;21187;50.976;13.720;2024-01-07T18:21:39;6.45;;;2.80;;
34982;SDS011;21187;50.976;13.720;2024-01-07T18:26:42;8.43;;;3.38;;
34982;SDS011;21187;50.976;13.720;2024-01-07T18:31:44;9.40;;;4.18;;
34982;SDS011;21187;50.976;13.720;2024-01-07T18:36:46;7.05;;;3.28;;
34982;SDS011;21187;50.976;13.720;2024-01-07T18:41:52;7.47;;;3.13;;
34982;SDS011;21187;50.976;13.720;2024-01-07T18:46:56;9.60;;;3.80;;
34982;SDS011;21187;50.976;13.720;2024-01-07T18:51:58;6.78;;;3.35;;
34982;SDS011;21187;50.976;13.720;2024-01-07T18:57:00;5.90;;;3.30;;
34982;SDS011;21187;50.976;13.720;2024-01-07T19:02:05;7.28;;;3.35;;
34982;SDS011;21187;50.976;13.720;2024-01-07T19:07:07;11.02;;;4.72;;
34982;SDS011;21187;50.976;13.720;2024-01-07T19:12:09;21.77;;;8.27;;
34982;SDS011;21187;50.976;13.720;2024-01-07T19:17:15;13.43;;;5.80;;
34982;SDS011;21187;50.976;13.720;2024-01-07T19:22:18;14.32;;;5.47;;
34982;SDS011;21187;50.976;13.720;2024-01-07T19:27:20;88.25;;;23.33;;
34982;SDS011;21187;50.976;13.720;2024-01-07T19:32:24;21.50;;;7.68;;
34982;SDS011;21187;50.976;13.720;2024-01-07T19:37:27;25.58;;;8.55;;
34982;SDS011;21187;50.976;13.720;2024-01-07T19:42:29;12.13;;;5.28;;
34982;SDS011;21187;50.976;13.720;2024-01-07T19:47:31;10.75;;;4.50;;
34982;SDS011;21187;50.976;13.720;2024-01-07T19:52:34;7.80;;;3.40;;
34982;SDS011;21187;50.976;13.720;2024-01-07T19:57:37;9.25;;;3.60;;
34982;SDS011;21187;50.976;13.720;2024-01-07T20:02:40;13.23;;;4.55;;
34982;SDS011;21187;50.976;13.720;2024-01-07T20:07:42;8.20;;;3.78;;
34982;SDS011;21187;50.976;13.720;2024-01-07T20:12:44;9.45;;;3.90;;
34982;SDS011;21187;50.976;13.720;2024-01-07T20:17:46;8.02;;;3.53;;
34982;SDS011;21187;50.976;13.720;2024-01-07T20:22:48;11.90;;;3.95;;
34982;SDS011;21187;50.976;13.720;2024-01-07T20:27:50;11.93;;;4.22;;
34982;SDS011;21187;50.976;13.720;2024-01-07T20:32:53;9.32;;;3.60;;
34982;SDS011;21187;50.976;13.720;2024-01-07T20:37:55;8.88;;;3.25;;
34982;SDS011;21187;50.976;13.720;2024-01-07T20:42:57;3.90;;;2.55;;
34982;SDS011;21187;50.976;13.720;2024-01-07T20:48:00;8.65;;;3.97;;
34982;SDS011;21187;50.976;13.720;2024-01-07T20:53:04;6.70;;;3.58;;
34982;SDS011;21187;50.976;13.720;2024-01-07T20:58:06;7.72;;;3.70;;
34982;SDS011;21187;50.976;13.720;2024-01-07T21:03:09;8.43;;;3.40;;
34982;SDS011;21187;50.976;13.720;2024-01-07T21:08:12;11.93;;;4.18;;
34982;SDS011;21187;50.976;13.720;2024-01-07T21:13:15;9.75;;;4.10;;
34982;SDS011;21187;50.976;13.720;2024-01-07T21:18:17;9.07;;;4.07;;
34982;SDS011;21187;50.976;13.720;2024-01-07T21:23:20;9.10;;;4.05;;
34982;SDS011;21187;50.976;13.720;2024-01-07T21:28:22;6.45;;;3.30;;
34982;SDS011;21187;50.976;13.720;2024-01-07T21:33:24;8.70;;;3.53;;
34982;SDS011;21187;50.976;13.720;2024-01-07T21:38:28;8.63;;;3.75;;
34982;SDS011;21187;50.976;13.720;2024-01-07T21:43:30;17.85;;;5.90;;
34982;SDS011;21187;50.976;13.720;2024-01-07T21:48:35;9.65;;;5.13;;
34982;SDS011;21187;50.976;13.720;2024-01-07T21:53:37;13.40;;;5.72;;
34982;SDS011;21187;50.976;13.720;2024-01-07T21:58:39;22.10;;;7.82;;
34982;SDS011;21187;50.976;13.720;2024-01-07T22:03:41;17.15;;;6.70;;
34982;SDS011;21187;50.976;13.720;2024-01-07T22:08:43;8.50;;;4.18;;
34982;SDS011;21187;50.976;13.720;2024-01-07T22:13:46;7.63;;;3.15;;
34982;SDS011;21187;50.976;13.720;2024-01-07T22:18:48;8.13;;;4.00;;
34982;SDS011;21187;50.976;13.720;2024-01-07T22:23:50;9.65;;;4.15;;
34982;SDS011;21187;50.976;13.720;2024-01-07T22:28:52;12.25;;;4.38;;
34982;SDS011;21187;50.976;13.720;2024-01-07T22:33:54;8.07;;;3.70;;
34982;SDS011;21187;50.976;13.720;2024-01-07T22:38:57;6.38;;;2.70;;
34982;SDS011;21187;50.976;13.720;2024-01-07T22:43:59;12.20;;;5.25;;
34982;SDS011;21187;50.976;13.720;2024-01-07T22:49:01;9.90;;;4.43;;
34982;SDS011;21187;50.976;13.720;2024-01-07T22:54:03;7.68;;;3.40;;
34982;SDS011;21187;50.976;13.720;2024-01-07T22:59:06;9.23;;;3.83;;
34982;SDS011;21187;50.976;13.720;2024-01-07T23:04:09;5.55;;;3.15;;
34982;SDS011;21187;50.976;13.720;2024-01-07T23:09:12;8.95;;;3.25;;
34982;SDS011;21187;50.976;13.720;2024-01-07T23:14:14;4.65;;;3.00;;
34982;SDS011;21187;50.976;13.720;2024-01-07T23:19:16;7.82;;;3.80;;
34982;SDS011;21187;50.976;13.720;2024-01-07T23:24:18;9.90;;;3.60;;
34982;SDS011;21187;50.976;13.720;2024-01-07T23:29:19;11.25;;;4.53;;
34982;SDS011;21187;50.976;13.720;2024-01-07T23:34:22;7.80;;;3.25;;
34982;SDS011;21187;50.976;13.720;2024-01-07T23:39:24;6.22;;;3.22;;
34982;SDS011;21187;50.976;13.720;2024-01-07T23:44:26;6.75;;;3.15;;
34982;SDS011;21187;50.976;13.720;2024-01-07T23:49:28;7.13;;;3.40;;
34982;SDS011;21187;50.976;13.720;2024-01-07T23:54:29;5.93;;;2.90;;
34982;SDS011;21187;50.976;13.720;2024-01-07T23:59:32;5.55;;;2.95;;
